Terminal Aerodrome Forecast
Issued by NWS

Current Version | Previous Version | Text Only | Print | Product List | Glossary On
Versions: 1 2 3 4 5 6 7 8 9 10 11 12
000
FTUS44 KEPZ 252300
TAFDMN
TAF
KDMN 252321Z 2600/2624 18005KT P6SM FEW090
     FM260300 27011KT P6SM SKC
     FM261800 02005KT P6SM FEW090=

USA.gov is the U.S. government's official web portal to all federal, state and local government web resources and services.